sensor_id;sensor_type;location;lat;lon;timestamp;temperature;humidity
28069;DHT22;15382;47.578;8.086;2023-04-24T00:02:44;9.90;99.90
28069;DHT22;15382;47.578;8.086;2023-04-24T00:12:47;9.90;99.90
28069;DHT22;15382;47.578;8.086;2023-04-24T00:22:48;9.80;99.90
28069;DHT22;15382;47.578;8.086;2023-04-24T00:32:49;9.80;99.90
28069;DHT22;15382;47.578;8.086;2023-04-24T00:42:50;10.00;99.90
28069;DHT22;15382;47.578;8.086;2023-04-24T00:52:51;10.10;99.90
28069;DHT22;15382;47.578;8.086;2023-04-24T01:02:52;10.10;99.90
28069;DHT22;15382;47.578;8.086;2023-04-24T01:12:53;10.10;99.90
28069;DHT22;15382;47.578;8.086;2023-04-24T01:22:54;10.30;99.90
28069;DHT22;15382;47.578;8.086;2023-04-24T01:32:58;10.30;99.90
28069;DHT22;15382;47.578;8.086;2023-04-24T01:43:00;10.20;99.90
28069;DHT22;15382;47.578;8.086;2023-04-24T01:53:00;10.20;99.90
28069;DHT22;15382;47.578;8.086;2023-04-24T02:03:01;10.30;99.90
28069;DHT22;15382;47.578;8.086;2023-04-24T02:13:02;10.30;99.90
28069;DHT22;15382;47.578;8.086;2023-04-24T02:23:03;10.30;99.90
28069;DHT22;15382;47.578;8.086;2023-04-24T02:33:04;10.20;99.90
28069;DHT22;15382;47.578;8.086;2023-04-24T02:43:05;10.30;99.90
28069;DHT22;15382;47.578;8.086;2023-04-24T02:53:05;10.20;99.90
28069;DHT22;15382;47.578;8.086;2023-04-24T03:03:06;10.20;99.90
28069;DHT22;15382;47.578;8.086;2023-04-24T03:13:07;10.00;99.90
28069;DHT22;15382;47.578;8.086;2023-04-24T03:23:08;9.90;99.90
28069;DHT22;15382;47.578;8.086;2023-04-24T03:33:11;9.90;99.90
28069;DHT22;15382;47.578;8.086;2023-04-24T03:43:19;9.80;99.90
28069;DHT22;15382;47.578;8.086;2023-04-24T03:53:20;9.60;99.90
28069;DHT22;15382;47.578;8.086;2023-04-24T04:03:21;9.50;99.90
28069;DHT22;15382;47.578;8.086;2023-04-24T04:13:23;9.40;99.90
28069;DHT22;15382;47.578;8.086;2023-04-24T04:23:24;9.20;99.90
28069;DHT22;15382;47.578;8.086;2023-04-24T04:33:51;9.00;99.90
28069;DHT22;15382;47.578;8.086;2023-04-24T04:43:52;8.90;99.90
28069;DHT22;15382;47.578;8.086;2023-04-24T04:53:54;8.80;99.90
28069;DHT22;15382;47.578;8.086;2023-04-24T05:03:56;8.70;99.90
28069;DHT22;15382;47.578;8.086;2023-04-24T05:13:57;8.70;99.90
28069;DHT22;15382;47.578;8.086;2023-04-24T05:24:06;8.60;99.90
28069;DHT22;15382;47.578;8.086;2023-04-24T05:34:22;8.60;99.90
28069;DHT22;15382;47.578;8.086;2023-04-24T05:44:27;8.60;99.90
28069;DHT22;15382;47.578;8.086;2023-04-24T05:54:28;8.60;99.90
28069;DHT22;15382;47.578;8.086;2023-04-24T06:04:31;9.00;99.90
28069;DHT22;15382;47.578;8.086;2023-04-24T06:14:33;8.90;99.90
28069;DHT22;15382;47.578;8.086;2023-04-24T06:24:56;8.80;99.90
28069;DHT22;15382;47.578;8.086;2023-04-24T06:34:59;9.00;99.90
28069;DHT22;15382;47.578;8.086;2023-04-24T06:44:59;9.10;99.90
28069;DHT22;15382;47.578;8.086;2023-04-24T06:55:04;9.20;99.90
28069;DHT22;15382;47.578;8.086;2023-04-24T07:05:05;9.30;99.90
28069;DHT22;15382;47.578;8.086;2023-04-24T07:15:06;8.80;99.90
28069;DHT22;15382;47.578;8.086;2023-04-24T07:25:08;8.40;99.90
28069;DHT22;15382;47.578;8.086;2023-04-24T07:35:09;8.10;99.90
28069;DHT22;15382;47.578;8.086;2023-04-24T07:45:10;7.90;99.90
28069;DHT22;15382;47.578;8.086;2023-04-24T07:55:11;8.00;99.90
28069;DHT22;15382;47.578;8.086;2023-04-24T08:05:12;8.40;99.90
28069;DHT22;15382;47.578;8.086;2023-04-24T08:15:12;9.10;99.90
28069;DHT22;15382;47.578;8.086;2023-04-24T08:25:13;9.50;99.90
28069;DHT22;15382;47.578;8.086;2023-04-24T08:35:14;9.30;99.90
28069;DHT22;15382;47.578;8.086;2023-04-24T08:45:15;9.10;99.90
28069;DHT22;15382;47.578;8.086;2023-04-24T08:55:16;9.60;99.90
28069;DHT22;15382;47.578;8.086;2023-04-24T09:05:21;9.90;99.90
28069;DHT22;15382;47.578;8.086;2023-04-24T09:15:22;10.30;99.90
28069;DHT22;15382;47.578;8.086;2023-04-24T09:25:33;10.10;99.90
28069;DHT22;15382;47.578;8.086;2023-04-24T09:35:34;10.00;99.90
28069;DHT22;15382;47.578;8.086;2023-04-24T09:45:36;10.10;99.90
28069;DHT22;15382;47.578;8.086;2023-04-24T09:55:45;10.70;99.90
28069;DHT22;15382;47.578;8.086;2023-04-24T10:05:47;12.30;99.90
28069;DHT22;15382;47.578;8.086;2023-04-24T10:15:48;11.20;99.90
28069;DHT22;15382;47.578;8.086;2023-04-24T10:25:50;10.50;99.90
28069;DHT22;15382;47.578;8.086;2023-04-24T10:35:52;10.40;99.90
28069;DHT22;15382;47.578;8.086;2023-04-24T10:46:02;11.00;99.90
28069;DHT22;15382;47.578;8.086;2023-04-24T10:56:04;10.70;99.90
28069;DHT22;15382;47.578;8.086;2023-04-24T11:06:07;10.90;99.90
28069;DHT22;15382;47.578;8.086;2023-04-24T11:16:15;10.70;99.90
28069;DHT22;15382;47.578;8.086;2023-04-24T11:26:21;10.60;99.90
28069;DHT22;15382;47.578;8.086;2023-04-24T11:36:24;10.80;99.90
28069;DHT22;15382;47.578;8.086;2023-04-24T11:46:28;11.30;99.90
28069;DHT22;15382;47.578;8.086;2023-04-24T11:56:30;11.90;99.90
28069;DHT22;15382;47.578;8.086;2023-04-24T12:06:31;11.50;99.90
28069;DHT22;15382;47.578;8.086;2023-04-24T12:16:33;11.20;99.90
28069;DHT22;15382;47.578;8.086;2023-04-24T12:26:33;12.50;99.90
28069;DHT22;15382;47.578;8.086;2023-04-24T12:36:35;12.60;99.90
28069;DHT22;15382;47.578;8.086;2023-04-24T12:46:36;11.90;99.90
28069;DHT22;15382;47.578;8.086;2023-04-24T12:56:36;11.80;99.90
28069;DHT22;15382;47.578;8.086;2023-04-24T13:06:39;11.80;99.90
28069;DHT22;15382;47.578;8.086;2023-04-24T13:16:40;11.80;99.90
28069;DHT22;15382;47.578;8.086;2023-04-24T13:26:41;11.40;99.90
28069;DHT22;15382;47.578;8.086;2023-04-24T13:36:42;11.20;99.90
28069;DHT22;15382;47.578;8.086;2023-04-24T13:46:44;11.90;99.90
28069;DHT22;15382;47.578;8.086;2023-04-24T13:56:45;11.80;99.90
28069;DHT22;15382;47.578;8.086;2023-04-24T14:06:46;12.30;99.90
28069;DHT22;15382;47.578;8.086;2023-04-24T14:16:47;12.20;99.90
28069;DHT22;15382;47.578;8.086;2023-04-24T14:26:47;12.20;99.90
28069;DHT22;15382;47.578;8.086;2023-04-24T14:36:48;12.70;99.90
28069;DHT22;15382;47.578;8.086;2023-04-24T14:46:49;12.80;99.90
28069;DHT22;15382;47.578;8.086;2023-04-24T14:56:50;13.70;99.90
28069;DHT22;15382;47.578;8.086;2023-04-24T15:06:52;13.50;99.90
28069;DHT22;15382;47.578;8.086;2023-04-24T15:16:54;14.00;99.90
28069;DHT22;15382;47.578;8.086;2023-04-24T15:26:55;13.50;99.90
28069;DHT22;15382;47.578;8.086;2023-04-24T15:36:56;13.70;99.90
28069;DHT22;15382;47.578;8.086;2023-04-24T15:57:00;14.40;99.90
28069;DHT22;15382;47.578;8.086;2023-04-24T16:07:01;13.80;99.90
28069;DHT22;15382;47.578;8.086;2023-04-24T16:17:02;12.80;99.90
28069;DHT22;15382;47.578;8.086;2023-04-24T16:27:03;13.10;99.90
28069;DHT22;15382;47.578;8.086;2023-04-24T16:37:04;13.10;99.90
28069;DHT22;15382;47.578;8.086;2023-04-24T16:47:06;12.90;99.90
28069;DHT22;15382;47.578;8.086;2023-04-24T16:57:07;12.30;99.90
28069;DHT22;15382;47.578;8.086;2023-04-24T17:07:08;12.10;99.90
28069;DHT22;15382;47.578;8.086;2023-04-24T17:17:09;12.00;99.90
28069;DHT22;15382;47.578;8.086;2023-04-24T17:27:10;12.00;99.90
28069;DHT22;15382;47.578;8.086;2023-04-24T17:37:11;11.60;99.90
28069;DHT22;15382;47.578;8.086;2023-04-24T17:47:12;11.50;99.90
28069;DHT22;15382;47.578;8.086;2023-04-24T17:57:12;11.50;99.90
28069;DHT22;15382;47.578;8.086;2023-04-24T18:07:13;11.30;99.90
28069;DHT22;15382;47.578;8.086;2023-04-24T18:17:14;11.10;99.90
28069;DHT22;15382;47.578;8.086;2023-04-24T18:27:15;11.00;99.90
28069;DHT22;15382;47.578;8.086;2023-04-24T18:37:15;10.80;99.90
28069;DHT22;15382;47.578;8.086;2023-04-24T18:47:16;10.70;99.90
28069;DHT22;15382;47.578;8.086;2023-04-24T18:57:17;10.50;99.90
28069;DHT22;15382;47.578;8.086;2023-04-24T19:07:18;10.30;99.90
28069;DHT22;15382;47.578;8.086;2023-04-24T19:17:19;10.20;99.90
28069;DHT22;15382;47.578;8.086;2023-04-24T19:27:24;10.20;99.90
28069;DHT22;15382;47.578;8.086;2023-04-24T19:37:24;10.10;99.90
28069;DHT22;15382;47.578;8.086;2023-04-24T19:47:25;9.90;99.90
28069;DHT22;15382;47.578;8.086;2023-04-24T19:57:26;9.80;99.90
28069;DHT22;15382;47.578;8.086;2023-04-24T20:07:27;9.50;99.90
28069;DHT22;15382;47.578;8.086;2023-04-24T20:17:28;9.50;99.90
28069;DHT22;15382;47.578;8.086;2023-04-24T20:27:28;9.10;99.90
28069;DHT22;15382;47.578;8.086;2023-04-24T20:37:29;9.00;99.90
28069;DHT22;15382;47.578;8.086;2023-04-24T20:47:30;9.00;99.90
28069;DHT22;15382;47.578;8.086;2023-04-24T20:57:31;9.00;99.90
28069;DHT22;15382;47.578;8.086;2023-04-24T21:07:32;8.80;99.90
28069;DHT22;15382;47.578;8.086;2023-04-24T21:17:33;8.90;99.90
28069;DHT22;15382;47.578;8.086;2023-04-24T21:27:34;8.90;99.90
28069;DHT22;15382;47.578;8.086;2023-04-24T21:37:35;9.00;99.90
28069;DHT22;15382;47.578;8.086;2023-04-24T21:47:37;9.00;99.90
28069;DHT22;15382;47.578;8.086;2023-04-24T21:57:38;9.00;99.90
28069;DHT22;15382;47.578;8.086;2023-04-24T22:07:39;8.80;99.90
28069;DHT22;15382;47.578;8.086;2023-04-24T22:17:40;8.50;99.90
28069;DHT22;15382;47.578;8.086;2023-04-24T22:27:41;8.50;99.90
28069;DHT22;15382;47.578;8.086;2023-04-24T22:37:42;8.60;99.90
28069;DHT22;15382;47.578;8.086;2023-04-24T22:47:43;8.50;99.90
28069;DHT22;15382;47.578;8.086;2023-04-24T22:57:44;8.50;99.90
28069;DHT22;15382;47.578;8.086;2023-04-24T23:07:44;8.70;99.90
28069;DHT22;15382;47.578;8.086;2023-04-24T23:17:45;8.70;99.90
28069;DHT22;15382;47.578;8.086;2023-04-24T23:27:47;8.70;99.90
28069;DHT22;15382;47.578;8.086;2023-04-24T23:37:48;8.50;99.90
28069;DHT22;15382;47.578;8.086;2023-04-24T23:47:49;8.30;99.90
28069;DHT22;15382;47.578;8.086;2023-04-24T23:57:50;8.20;99.90
